• Join FlightAware (Why Join?)
  • Login
  • US Flag 
03:17PM EST


 

Airport Tracker/Info


-or-


 

Live Flight TrackerFlight Track Log ✈ SWA1035 ✈ 22-Apr-2013 ✈ KMHT - KTPA

Flight Track Log - Related Links

Times and Time Zones

All times are in EDT time to prevent confusion due to time zone crossing. See the SWA1035 flight status page for this flight to view local times or setup timezone preferences in your user account.

Time Position Orientation Groundspeed Altitude Reporting Facility
EDT Latitude Longitude Course Direction KTS MPH feet Rate Location/Type
07:11AM 42.9500 -71.4500 54° Northeast 157 181 1,300  Level KA90
07:12AM 42.9956 -71.3642 54° Northeast 246 283 3,900 2,520 Climbing Boston Center
07:13AM 43.0278 -71.2472 69° East 257 296 8,400 3,600 Climbing Boston Center
07:14AM 43.0517 -71.1472 72° East 262 302 11,100 2,280 Climbing Boston Center
07:15AM 43.0772 -71.0303 73° East 320 368 13,000 2,580 Climbing Boston Center
07:16AM 43.0153 -70.9094 125° Southeast 318 366 16,300 2,640 Climbing Boston Center
07:17AM 42.9236 -70.9147 182° South 302 348 18,300 2,100 Climbing Boston Center
07:18AM 42.8242 -70.9594 198° South 333 383 20,500 2,340 Climbing Boston Center
07:19AM 42.7206 -71.0100 200° South 366 421 23,000 2,340 Climbing Boston Center
07:20AM 42.6150 -71.0633 200° South 391 450 25,200 1,740 Climbing Boston Center
07:21AM 42.5492 -71.1408 221° Southwest 399 459 26,500 1,800 Climbing Boston Center
07:22AM 42.4739 -71.2944 236° Southwest 394 453 28,800 2,700 Climbing Boston Center
07:23AM 42.4144 -71.4164 237° Southwest 399 459 32,000 2,400 Climbing Boston Center
07:24AM 42.3592 -71.5297 237° Southwest 387 445 33,600 1,500 Climbing Boston Center
07:25AM 42.2933 -71.6431 232° Southwest 381 438 35,000 1,500 Climbing Boston Center
07:26AM 42.2358 -71.7558 235° Southwest 381 438 36,600 1,320 Climbing Boston Center
07:27AM 42.1803 -71.8714 237° Southwest 381 438 37,700 660 Climbing Boston Center
07:28AM 42.1203 -71.9839 234° Southwest 381 438 38,000 120 Climbing Boston Center
07:29AM 42.0622 -72.0989 236° Southwest 381 438 38,000  Level Boston Center
07:30AM 41.9981 -72.2222 235° Southwest 381 438 38,000  Level Boston Center
07:31AM 41.9378 -72.3369 235° Southwest 376 433 38,000  Level Boston Center
07:32AM 41.8794 -72.4486 235° Southwest 376 433 38,000  Level Boston Center
07:33AM 41.8189 -72.5628 235° Southwest 376 433 38,000  Level Boston Center
07:34AM 41.7625 -72.6739 236° Southwest 376 433 38,000  Level Boston Center
07:35AM 41.7058 -72.7850 236° Southwest 376 433 38,000  Level Boston Center
07:36AM 41.6492 -72.8931 235° Southwest 376 433 38,000  Level Boston Center
07:37AM 41.5925 -72.9981 234° Southwest 370 426 38,000  Level Boston Center
07:38AM 41.5564 -73.1142 247° West 355 409 38,000  Level Boston Center
07:39AM 41.5661 -73.2447 276° West 334 384 38,000  Level Boston Center
07:40AM 41.5919 -73.3783 285° West 352 405 38,000  Level Boston Center
07:41AM 41.5764 -73.5000 260° West 334 384 38,000  Level Boston Center
07:42AM 41.5006 -73.5847 220° Southwest 320 368 38,000  Level Boston Center
07:43AM 41.4244 -73.6775 222° Southwest 346 398 38,000  Level Boston Center
07:44AM 41.3786 -73.7269 219° Southwest 356 410 38,000  Level New York Center
07:45AM 41.3036 -73.8175 222° Southwest 362 417 38,000  Level New York Center
07:46AM 41.2261 -73.9078 221° Southwest 367 422 38,000  Level New York Center
07:47AM 41.1489 -73.9978 221° Southwest 367 422 38,000  Level New York Center
07:48AM 41.0692 -74.0875 220° Southwest 367 422 38,000  Level New York Center
07:49AM 40.9917 -74.1797 222° Southwest 372 428 38,000  Level New York Center
07:50AM 40.9208 -74.2531 218° Southwest 372 428 38,000  Level New York Center
07:51AM 40.8408 -74.3422 220° Southwest 372 428 38,000  Level New York Center
07:52AM 40.7650 -74.4397 224° Southwest 372 428 38,000  Level New York Center
07:53AM 40.7014 -74.5458 232° Southwest 377 434 38,000  Level New York Center
07:54AM 40.6353 -74.6542 231° Southwest 382 440 38,000  Level New York Center
07:55AM 40.5606 -74.7731 230° Southwest 388 447 38,000  Level New York Center
07:56AM 40.4925 -74.8728 228° Southwest 388 447 38,000  Level New York Center
07:57AM 40.4200 -74.9747 227° Southwest 382 440 38,000  Level New York Center
07:58AM 40.3497 -75.0739 227° Southwest 382 440 38,000 -60 Level New York Center
07:59AM 40.2794 -75.1756 228° Southwest 376 433 37,900  Descending New York Center
08:00AM 40.2111 -75.2692 226° Southwest 370 426 38,000  Climbing New York Center
08:01AM 40.1450 -75.3625 227° Southwest 365 420 38,000  Level New York Center
08:02AM 40.0767 -75.4586 227° Southwest 365 420 38,000  Level New York Center
08:03AM 40.0083 -75.5489 225° Southwest 360 414 38,000  Level New York Center
08:04AM 39.9844 -75.6744 256° West 347 399 38,000  Level New York Center
08:05AM 39.9975 -75.8136 277° West 357 411 38,000  Level New York Center
08:06AM 40.0036 -75.9550 273° West 371 427 38,000  Level New York Center
08:07AM 39.9631 -76.0739 246° West 377 434 38,000  Level New York Center
08:08AM 39.8614 -76.1067 194° South 331 381 38,000  Level New York Center
08:10AM 39.6889 -76.2467 212° Southwest 368 423 38,000  Level Washington Center
08:11AM 39.6197 -76.3458 228° Southwest 377 434 38,000  Level Washington Center
08:12AM 39.5378 -76.4419 222° Southwest 382 440 38,000  Level Washington Center
08:13AM 39.4536 -76.5350 220° Southwest 382 440 38,000  Level Washington Center
08:14AM 39.3778 -76.6306 224° Southwest 388 447 38,000  Level Washington Center
08:15AM 39.2978 -76.7261 223° Southwest 388 447 38,000  Level Washington Center
08:16AM 39.2239 -76.8186 224° Southwest 388 447 38,000  Level Washington Center
08:17AM 39.1458 -76.9136 223° Southwest 388 447 38,000  Level Washington Center
08:18AM 39.0675 -77.0111 224° Southwest 383 441 38,000  Level Washington Center
08:19AM 38.9853 -77.1031 221° Southwest 383 441 38,000  Level Washington Center
08:20AM 38.9050 -77.1894 220° Southwest 388 447 38,000  Level Washington Center
08:21AM 38.8244 -77.2783 221° Southwest 388 447 38,000  Level Washington Center
08:22AM 38.7461 -77.3644 221° Southwest 388 447 38,000  Level Washington Center
08:23AM 38.6656 -77.4503 220° Southwest 383 441 38,000  Level Washington Center
08:24AM 38.5869 -77.5386 221° Southwest 383 441 38,000  Level Washington Center
08:25AM 38.5083 -77.6267 221° Southwest 383 441 38,000  Level Washington Center
08:26AM 38.4278 -77.7092 219° Southwest 383 441 38,000  Level Washington Center
08:27AM 38.3511 -77.7944 221° Southwest 383 441 38,000  Level Washington Center
08:28AM 38.2725 -77.8794 220° Southwest 383 441 38,000  Level Washington Center
08:29AM 38.1936 -77.9642 220° Southwest 383 441 38,000  Level Washington Center
08:30AM 38.1147 -78.0514 221° Southwest 383 441 38,000  Level Washington Center
08:31AM 38.0336 -78.1358 219° Southwest 383 441 38,000  Level Washington Center
08:32AM 37.9506 -78.2225 219° Southwest 378 435 38,000  Level Washington Center
08:33AM 37.8633 -78.3011 215° Southwest 383 441 38,000  Level Washington Center
08:34AM 37.7886 -78.3719 217° Southwest 383 441 38,000  Level Washington Center
08:35AM 37.7056 -78.4503 217° Southwest 383 441 38,000  Level Washington Center
08:36AM 37.6200 -78.5283 216° Southwest 378 435 38,000  Level Washington Center
08:37AM 37.5347 -78.6089 217° Southwest 378 435 38,000  Level Washington Center
08:38AM 37.4514 -78.6867 217° Southwest 378 435 38,000  Level Washington Center
08:39AM 37.3594 -78.7717 216° Southwest 378 435 38,000  Level Washington Center
08:40AM 37.2758 -78.8492 216° Southwest 378 435 38,000  Level Washington Center
08:41AM 37.1903 -78.9289 217° Southwest 378 435 38,000  Level Washington Center
08:42AM 37.1067 -79.0086 217° Southwest 378 435 38,000  Level Washington Center
08:43AM 37.0208 -79.0881 216° Southwest 378 435 38,000  Level Washington Center
08:44AM 36.9458 -79.1575 217° Southwest 378 435 38,000  Level Washington Center
08:45AM 36.8600 -79.2367 216° Southwest 378 435 38,000  Level Washington Center
08:46AM 36.7742 -79.3131 215° Southwest 378 435 38,000  Level Washington Center
08:47AM 36.6906 -79.3892 216° Southwest 378 435 38,000  Level Washington Center
08:48AM 36.6067 -79.4681 217° Southwest 378 435 38,000  Level Washington Center
08:49AM 36.5142 -79.5511 216° Southwest 378 435 38,000  Level Washington Center
08:51AM 36.3486 -79.6978 216° Southwest 365 420 38,000  Level Atlanta Center
08:52AM 36.2658 -79.7744 217° Southwest 370 426 38,000  Level Atlanta Center
08:53AM 36.1847 -79.8456 215° Southwest 370 426 38,000  Level Atlanta Center
08:54AM 36.1039 -79.9192 216° Southwest 370 426 38,000  Level Atlanta Center
08:55AM 36.0267 -79.9822 213° Southwest 370 426 38,000  Level Atlanta Center
08:56AM 35.9322 -80.0306 203° Southwest 370 426 38,000  Level Atlanta Center
08:57AM 35.8381 -80.0786 202° Southwest 370 426 38,000  Level Atlanta Center
08:58AM 35.7394 -80.1269 202° Southwest 370 426 38,000  Level Atlanta Center
08:59AM 35.6469 -80.1772 204° Southwest 370 426 38,000  Level Atlanta Center
09:00AM 35.5422 -80.2308 203° Southwest 370 426 38,000  Level Atlanta Center
09:01AM 35.4478 -80.2786 202° Southwest 370 426 38,000  Level Atlanta Center
09:02AM 35.3553 -80.3233 202° Southwest 370 426 38,000  Level Atlanta Center
09:04AM 35.1783 -80.4117 202° Southwest 356 410 38,000  Level Jacksonville Center
09:05AM 35.0853 -80.4575 202° Southwest 361 415 38,000  Level Jacksonville Center
09:06AM 34.9903 -80.5056 203° Southwest 366 421 38,000  Level Jacksonville Center
09:07AM 34.8933 -80.5514 201° Southwest 372 428 38,000  Level Jacksonville Center
09:08AM 34.8025 -80.6019 205° Southwest 367 422 38,000  Level Jacksonville Center
09:09AM 34.7072 -80.6475 201° Southwest 362 417 38,000  Level Jacksonville Center
09:10AM 34.6081 -80.6928 201° Southwest 375 432 38,000  Level Jacksonville Center
09:11AM 34.5169 -80.7381 202° Southwest 392 451 38,000  Level Jacksonville Center
09:12AM 34.4217 -80.7858 202° Southwest 382 440 38,000  Level Jacksonville Center
09:13AM 34.3286 -80.8208 197° South 372 428 38,000  Level Jacksonville Center
09:14AM 34.2250 -80.8783 205° Southwest 367 422 38,000  Level Jacksonville Center
09:15AM 34.1300 -80.9283 204° Southwest 367 422 38,000  Level Jacksonville Center
09:16AM 34.0347 -80.9731 201° Southwest 372 428 38,000  Level Jacksonville Center
09:17AM 33.9372 -81.0178 201° Southwest 372 428 38,000  Level Jacksonville Center
09:18AM 33.8397 -81.0622 201° Southwest 377 434 38,000  Level Jacksonville Center
09:19AM 33.7631 -81.0989 202° Southwest 377 434 38,000  Level Jacksonville Center
09:20AM 33.6556 -81.1558 204° Southwest 382 440 38,000  Level Jacksonville Center
09:21AM 33.5600 -81.2053 203° Southwest 382 440 38,000  Level Jacksonville Center
09:22AM 33.4628 -81.2544 203° Southwest 382 440 38,000  Level Jacksonville Center
09:23AM 33.3653 -81.3008 202° Southwest 382 440 38,000  Level Jacksonville Center
09:24AM 33.2656 -81.3475 201° Southwest 382 440 38,000  Level Jacksonville Center
09:25AM 33.1639 -81.3964 202° Southwest 391 450 38,000  Level Jacksonville Center
09:26AM 33.0664 -81.4450 203° Southwest 391 450 38,000  Level Jacksonville Center
09:27AM 32.9667 -81.4936 202° Southwest 391 450 38,000  Level Jacksonville Center
09:28AM 32.8650 -81.5447 203° Southwest 391 450 38,000  Level Jacksonville Center
09:29AM 32.7653 -81.5906 201° Southwest 391 450 38,000  Level Jacksonville Center
09:30AM 32.6656 -81.6389 202° Southwest 391 450 38,000  Level Jacksonville Center
09:31AM 32.5533 -81.6922 202° Southwest 396 456 38,000  Level Jacksonville Center
09:32AM 32.4536 -81.7428 203° Southwest 396 456 38,000  Level Jacksonville Center
09:33AM 32.3581 -81.7883 202° Southwest 396 456 38,000  Level Jacksonville Center
09:34AM 32.2436 -81.8414 201° Southwest 396 456 38,000  Level Jacksonville Center
09:35AM 32.1500 -81.8867 202° Southwest 396 456 38,000  Level Jacksonville Center
09:36AM 32.0336 -81.9417 202° Southwest 407 468 38,000  Level Jacksonville Center
09:37AM 31.9275 -81.9869 200° South 413 475 38,000  Level Jacksonville Center
09:38AM 31.8294 -82.0269 199° South 407 468 38,000  Level Jacksonville Center
09:39AM 31.7108 -82.0744 199° South 407 468 38,000  Level Jacksonville Center
09:40AM 31.6025 -82.1217 200° South 412 474 38,000  Level Jacksonville Center
09:41AM 31.4964 -82.1617 198° South 412 474 38,000  Level Jacksonville Center
09:42AM 31.3881 -82.2061 199° South 405 466 38,000  Level Jacksonville Center
09:43AM 31.2797 -82.2508 199° South 410 472 38,000  Level Jacksonville Center
09:44AM 31.1794 -82.2831 195° South 410 472 38,000  Level Jacksonville Center
09:45AM 31.0628 -82.2911 183° South 410 472 38,000  Level Jacksonville Center
09:46AM 30.9500 -82.2967 182° South 415 478 38,000  Level Jacksonville Center
09:47AM 30.8353 -82.3022 182° South 415 478 38,000  Level Jacksonville Center
09:48AM 30.7183 -82.3053 181° South 415 478 38,000  Level Jacksonville Center
09:49AM 30.6014 -82.3133 183° South 420 483 38,000  Level Jacksonville Center
09:50AM 30.4864 -82.3117 179° South 420 483 38,000 -240 Level Jacksonville Center
09:51AM 30.3675 -82.3194 183° South 420 483 37,600 -1,380 Descending Jacksonville Center
09:52AM 30.2506 -82.3250 182° South 420 483 35,300 -1,320 Descending Jacksonville Center
09:53AM 30.1317 -82.3306 182° South 420 483 35,000 -360 Descending Jacksonville Center
09:54AM 30.0147 -82.3361 182° South 420 483 34,600 -1,260 Descending Jacksonville Center
09:55AM 29.9019 -82.3414 182° South 420 483 32,500 -2,100 Descending Jacksonville Center
09:56AM 29.7914 -82.3469 182° South 414 476 30,500 -1,980 Descending Jacksonville Center
09:57AM 29.6828 -82.3522 182° South 402 463 28,600 -1,500 Descending Jacksonville Center
09:58AM 29.5786 -82.3578 183° South 386 444 27,600 -1,200 Descending Jacksonville Center
09:59AM 29.4719 -82.3439 174° South 381 438 26,200 -1,620 Descending Jacksonville Center
10:00AM 29.3697 -82.3325 174° South 381 438 24,400 -1,860 Descending Jacksonville Center
10:01AM 29.2631 -82.3214 175° South 374 430 22,600 -1,800 Descending Jacksonville Center
10:02AM 29.1669 -82.3075 173° South 361 415 20,900 -1,740 Descending Jacksonville Center
10:03AM 29.0711 -82.2961 174° South 350 403 19,200 -1,680 Descending Jacksonville Center
10:04AM 28.9769 -82.2872 175° South 350 403 17,600 -1,800 Descending Jacksonville Center
10:05AM 28.8808 -82.2783 175° South 350 403 15,700 -1,500 Descending Jacksonville Center
10:07AM 28.7000 -82.2500 172° South 317 365 13,100 -1,020 Descending Tampa TRACON
10:08AM 28.6167 -82.2500 180° South 313 360 12,700 -780 Descending Tampa TRACON
10:09AM 28.5167 -82.2500 180° South 320 368 11,700 -960 Descending Tampa TRACON
10:10AM 28.4333 -82.2500 180° South 319 367 10,800 -900 Descending Tampa TRACON
10:11AM 28.3500 -82.2500 180° South 308 354 10,100 -420 Descending Tampa TRACON
10:12AM 28.2833 -82.2833 204° Southwest 303 349 10,100 -180 Level Tampa TRACON
10:13AM 28.2000 -82.3333 208° Southwest 300 345 9,800 -780 Descending Tampa TRACON
10:14AM 28.1167 -82.3667 199° South 275 316 8,500 -1,320 Descending Tampa TRACON
10:15AM 28.0500 -82.4000 204° Southwest 271 312 7,100 -1,320 Descending Tampa TRACON
10:16AM 27.9833 -82.4167 192° South 264 304 5,900 -1,320 Descending Tampa TRACON
10:17AM 27.9167 -82.4500 204° Southwest 259 298 4,500 -1,320 Descending Tampa TRACON
10:18AM 27.8333 -82.4667 190° South 257 296 3,300 -900 Descending Tampa TRACON
10:19AM 27.7833 -82.4833 196° South 236 272 2,800 -360 Descending Tampa TRACON
10:20AM 27.7833 -82.5500 270° West 213 245 2,700 -300 Descending Tampa TRACON
10:21AM 27.8500 -82.5500 360° North 211 243 2,300 -720 Descending Tampa TRACON
10:22AM 27.9000 -82.5500 360° North 169 194 1,400 -900 Descending Tampa TRACON
10:23AM 27.9333 -82.5500 360° North 140 161 600 -780 Descending Tampa TRACON
10:25AM 27.9667 -82.5167 350° North  Level FlightAware Approximate
10:32AM 27.9755 -82.5332 350° North  Level Estimated
10:33AM 27.9755 -82.5332 350° North  Level Estimated